• Join FlightAware (Why Join?)
  • Login
  • US Flag 
05:08AM EDT


 

Airport Tracker/Info


-or-


 

Live Flight TrackerFlight Track Log ✈ UAL33 ✈ 21-Sep-2013 ✈ RJAA / NRT - KLAX

Flight Track Log - Related Links

Times and Time Zones

All times are in EDT time to prevent confusion due to time zone crossing. See the UAL33 flight status page for this flight to view local times or setup timezone preferences in your user account.

Time Position Orientation Groundspeed Altitude Reporting Facility
EDT Latitude Longitude Course Direction KTS MPH feet Rate Location/Type
05:10AM 35.7450 140.3900 148° Southeast 160 184 1,000  Level FlightAware
05:10AM 35.7320 140.3990 151° Southeast 166 191 1,800 2,220 Climbing FlightAware
05:11AM 35.7180 140.4090 150° Southeast 173 199 2,500 1,860 Climbing FlightAware
05:11AM 35.7040 140.4190 150° Southeast 178 205 3,100 1,680 Climbing FlightAware
05:11AM 35.7010 140.4220 141° Southeast 180 207 3,200 1,080 Climbing FlightAware
05:12AM 35.6730 140.4410 151° Southeast 226 260 3,800 1,080 Climbing FlightAware
05:12AM 35.6540 140.4550 149° Southeast 252 290 4,200 1,620 Climbing FlightAware
05:12AM 35.6290 140.4730 150° Southeast 273 314 5,000 2,400 Climbing FlightAware
05:13AM 35.6070 140.4890 149° Southeast 279 321 6,000 2,520 Climbing FlightAware
05:13AM 35.5830 140.5060 150° Southeast 292 336 6,700 2,400 Climbing FlightAware
05:13AM 35.5600 140.5230 149° Southeast 295 339 7,600 2,820 Climbing FlightAware
05:14AM 35.5450 140.5370 143° Southeast 296 341 8,300 2,700 Climbing FlightAware
05:14AM 35.5410 140.5430 129° Southeast 297 342 8,500 2,520 Climbing FlightAware
05:14AM 35.5350 140.5570 118° Southeast 299 344 8,900 2,220 Climbing FlightAware
05:14AM 35.5320 140.5700 106° East 302 348 9,100 2,100 Climbing FlightAware
05:14AM 35.5300 140.5910 97° East 306 352 9,600 1,860 Climbing FlightAware
05:15AM 35.5260 140.6550 94° East 333 383 10,600 1,500 Climbing FlightAware
05:15AM 35.5210 140.7270 95° East 366 421 11,400 1,800 Climbing FlightAware
05:16AM 35.5150 140.8050 95° East 384 442 12,800 2,220 Climbing FlightAware
05:17AM 35.5090 140.8740 96° East 395 455 14,000 2,160 Climbing FlightAware
05:17AM 35.4990 140.9550 99° East 406 467 15,300 2,160 Climbing FlightAware
05:18AM 35.4870 141.0370 100° East 415 478 16,600 2,160 Climbing FlightAware
05:18AM 35.4760 141.1190 99° East 421 484 17,900 2,100 Climbing FlightAware
05:19AM 35.4640 141.1990 100° East 433 498 19,000 2,100 Climbing FlightAware
05:19AM 35.4520 141.2830 100° East 439 505 20,300 1,980 Climbing FlightAware
05:20AM 35.4370 141.3810 101° East 448 516 21,500 1,920 Climbing FlightAware
05:21AM 35.4220 141.4820 100° East 451 519 22,900 1,920 Climbing FlightAware
05:21AM 35.4110 141.5540 101° East 457 526 23,800 1,860 Climbing FlightAware
05:22AM 35.3960 141.6560 100° East 460 529 25,100 1,800 Climbing FlightAware
05:23AM 35.3810 141.7580 100° East 465 535 26,300 1,680 Climbing FlightAware
05:23AM 35.3680 141.8410 101° East 470 541 27,200 1,500 Climbing FlightAware
05:24AM 35.3520 141.9440 101° East 476 548 28,100 1,440 Climbing FlightAware
05:24AM 35.3380 142.0340 101° East 484 557 28,900 1,380 Climbing FlightAware
05:25AM 35.3230 142.1330 100° East 491 565 29,700 1,320 Climbing FlightAware
05:26AM 35.3090 142.2270 100° East 497 572 30,500 1,200 Climbing FlightAware
05:26AM 35.2930 142.3280 101° East 505 581 31,100 780 Climbing FlightAware
05:27AM 35.2800 142.4130 101° East 516 594 31,400 780 Climbing FlightAware
05:27AM 35.2670 142.5380 97° East 524 603 32,100 1,080 Climbing FlightAware
05:28AM 35.2750 142.6020 81° East 527 606 32,600 1,500 Climbing FlightAware
05:28AM 35.3040 142.6930 69° East 523 602 33,500 1,560 Climbing FlightAware
05:29AM 35.3380 142.8040 69° East 522 601 34,600 1,500 Climbing FlightAware
05:30AM 35.3700 142.9050 69° East 512 589 35,500 1,260 Climbing FlightAware
05:30AM 35.4010 143.0020 69° East 513 590 36,100 1,080 Climbing FlightAware
05:31AM 35.4330 143.1050 69° East 511 588 36,900 1,080 Climbing FlightAware
05:31AM 35.4650 143.2080 69° East 490 564 37,600 840 Climbing FlightAware
05:32AM 35.5090 143.3500 69° East 512 589 38,200 600 Climbing FlightAware
05:33AM 35.5550 143.4980 69° East 511 588 38,700 420 Climbing FlightAware
05:34AM 35.5950 143.6270 69° East 522 601 39,000 180 Climbing FlightAware
05:35AM 35.6230 143.7180 69° East 509 586 39,000  Level FlightAware
05:36AM 35.6650 143.8580 70° East 509 586 39,000  Level FlightAware
05:36AM 35.7050 143.9870 69° East 510 587 39,000  Level FlightAware
05:37AM 35.7330 144.0770 69° East 510 587 39,000  Level FlightAware
05:37AM 35.7590 144.1600 69° East 510 587 39,000  Level FlightAware
05:38AM 35.8070 136.8260 273° West 511 588 39,000  Level FlightAware
05:39AM 35.8400 144.4370 87° East 510 587 39,000  Level FlightAware
05:40AM 35.8760 144.5590 70° East 511 588 39,000  Level FlightAware
05:40AM 35.9010 144.6430 70° East 511 588 39,000  Level FlightAware
05:41AM 35.9260 144.7270 70° East 511 588 39,000  Level FlightAware
05:42AM 35.9510 144.8110 70° East 511 588 39,000  Level FlightAware
05:42AM 35.9750 144.8950 71° East 511 588 39,000  Level FlightAware
05:43AM 36.0000 144.9790 70° East 511 588 39,000  Level FlightAware
05:43AM 36.0250 145.0630 70° East 511 588 39,000  Level FlightAware
05:44AM 36.0500 145.1490 70° East 511 588 39,000  Level FlightAware
05:45AM 36.0750 145.2330 70° East 511 588 39,000  Level FlightAware
05:45AM 36.1000 145.3200 70° East 511 588 39,000  Level FlightAware
05:46AM 36.1260 145.4060 69° East 511 588 39,000  Level FlightAware
05:46AM 36.1510 145.4910 70° East 511 588 39,000  Level FlightAware
05:47AM 36.1750 145.5750 70° East 511 588 39,000  Level FlightAware
05:48AM 36.2010 145.6610 69° East 511 588 39,000  Level FlightAware
05:48AM 36.2250 145.7460 71° East 511 588 39,000  Level FlightAware
05:49AM 36.2500 145.8300 70° East 511 588 39,000  Level FlightAware
05:52AM 36.5094 146.1937 48° Northeast  Level FlightAware Approximate
05:53AM 36.6083 146.3334 49° Northeast  Level FlightAware Approximate
05:54AM 36.7070 146.4734 49° Northeast  Level FlightAware Approximate
05:55AM 36.8055 146.6137 49° Northeast  Level FlightAware Approximate
05:56AM 36.9039 146.7544 49° Northeast  Level FlightAware Approximate
05:57AM 37.0021 146.8955 49° Northeast  Level FlightAware Approximate
05:58AM 37.1001 147.0370 49° Northeast  Level FlightAware Approximate
05:59AM 37.1980 147.1788 49° Northeast  Level FlightAware Approximate
06:00AM 37.2957 147.3210 49° Northeast  Level FlightAware Approximate
06:01AM 37.3932 147.4635 49° Northeast  Level FlightAware Approximate
06:02AM 37.4905 147.6065 49° Northeast  Level FlightAware Approximate
06:03AM 37.5877 147.7498 49° Northeast  Level FlightAware Approximate
06:04AM 37.6778 147.9026 69° East  Level FlightAware Approximate
06:05AM 37.7319 148.0788 69° East  Level FlightAware Approximate
06:06AM 37.7858 148.2552 69° East  Level FlightAware Approximate
06:07AM 37.8394 148.4319 69° East  Level FlightAware Approximate
06:08AM 37.8928 148.6088 69° East  Level FlightAware Approximate
06:09AM 37.9459 148.7859 69° East  Level FlightAware Approximate
06:10AM 37.9987 148.9634 69° East  Level FlightAware Approximate
06:11AM 38.0513 149.1411 69° East  Level FlightAware Approximate
06:12AM 38.0852 149.3236 88° East  Level FlightAware Approximate
06:13AM 38.0897 149.5134 88° East  Level FlightAware Approximate
06:14AM 38.0940 149.7034 88° East  Level FlightAware Approximate
06:15AM 38.0979 149.8933 88° East  Level FlightAware Approximate
06:16AM 38.1385 150.0674 54° Northeast  Level FlightAware Approximate
06:17AM 38.2262 150.2214 54° Northeast  Level FlightAware Approximate
06:18AM 38.3137 150.3759 54° Northeast  Level FlightAware Approximate
06:19AM 38.4010 150.5307 54° Northeast  Level FlightAware Approximate
06:20AM 38.4880 150.6858 54° Northeast  Level FlightAware Approximate
06:21AM 38.5749 150.8414 54° Northeast  Level FlightAware Approximate
06:22AM 38.6616 150.9973 55° Northeast  Level FlightAware Approximate
06:23AM 38.7481 151.1536 55° Northeast  Level FlightAware Approximate
06:24AM 38.8343 151.3103 55° Northeast  Level FlightAware Approximate
06:25AM 38.9204 151.4673 55° Northeast  Level FlightAware Approximate
06:26AM 39.0062 151.6248 55° Northeast  Level FlightAware Approximate
06:27AM 39.0919 151.7826 55° Northeast  Level FlightAware Approximate
06:28AM 39.1773 151.9408 55° Northeast  Level FlightAware Approximate
06:29AM 39.2625 152.0994 55° Northeast  Level FlightAware Approximate
06:30AM 39.3474 152.2584 55° Northeast  Level FlightAware Approximate
06:31AM 39.4322 152.4177 55° Northeast  Level FlightAware Approximate
06:32AM 39.5168 152.5775 56° Northeast  Level FlightAware Approximate
06:33AM 39.6011 152.7376 56° Northeast  Level FlightAware Approximate
06:34AM 39.6852 152.8981 56° Northeast  Level FlightAware Approximate
06:35AM 39.7691 153.0591 56° Northeast  Level FlightAware Approximate
06:36AM 39.8527 153.2204 56° Northeast  Level FlightAware Approximate
06:37AM 39.9362 153.3821 56° Northeast  Level FlightAware Approximate
06:38AM 40.0194 153.5442 56° Northeast  Level FlightAware Approximate
06:39AM 40.1024 153.7067 56° Northeast  Level FlightAware Approximate
06:40AM 40.1852 153.8696 56° Northeast  Level FlightAware Approximate
06:41AM 40.2677 154.0329 56° Northeast  Level FlightAware Approximate
06:42AM 40.3500 154.1965 57° Northeast  Level FlightAware Approximate
06:43AM 40.4320 154.3606 57° Northeast  Level FlightAware Approximate
06:44AM 40.5139 154.5251 57° Northeast  Level FlightAware Approximate
06:45AM 40.5955 154.6900 57° Northeast  Level FlightAware Approximate
06:46AM 40.6769 154.8553 57° Northeast  Level FlightAware Approximate
06:47AM 40.7580 155.0210 57° Northeast  Level FlightAware Approximate
06:48AM 40.8389 155.1871 57° Northeast  Level FlightAware Approximate
06:49AM 40.9196 155.3536 57° Northeast  Level FlightAware Approximate
06:50AM 41.0000 155.5205 57° Northeast  Level FlightAware Approximate
06:51AM 41.0801 155.6878 58° Northeast  Level FlightAware Approximate
06:52AM 41.1601 155.8555 58° Northeast  Level FlightAware Approximate
06:53AM 41.2398 156.0237 58° Northeast  Level FlightAware Approximate
06:54AM 41.3192 156.1922 58° Northeast  Level FlightAware Approximate
06:55AM 41.3984 156.3612 58° Northeast  Level FlightAware Approximate
06:56AM 41.4773 156.5305 58° Northeast  Level FlightAware Approximate
06:57AM 41.5560 156.7003 58° Northeast  Level FlightAware Approximate
06:58AM 41.6345 156.8705 58° Northeast  Level FlightAware Approximate
06:59AM 41.7127 157.0411 58° Northeast  Level FlightAware Approximate
07:00AM 41.7906 157.2121 59° Northeast  Level FlightAware Approximate
07:01AM 41.8683 157.3836 59° Northeast  Level FlightAware Approximate
07:02AM 41.9458 157.5554 59° Northeast  Level FlightAware Approximate
07:03AM 42.0229 157.7277 59° Northeast  Level FlightAware Approximate
07:04AM 42.0999 157.9004 59° Northeast  Level FlightAware Approximate
07:05AM 42.1765 158.0735 59° Northeast  Level FlightAware Approximate
07:06AM 42.2529 158.2470 59° Northeast  Level FlightAware Approximate
07:07AM 42.3291 158.4210 59° Northeast  Level FlightAware Approximate
07:08AM 42.4049 158.5953 59° Northeast  Level FlightAware Approximate
07:09AM 42.4805 158.7701 60° Northeast  Level FlightAware Approximate
07:10AM 42.5559 158.9453 60° Northeast  Level FlightAware Approximate
07:11AM 42.6310 159.1210 60° Northeast  Level FlightAware Approximate
07:12AM 42.7062 159.2980 60° Northeast  Level FlightAware Approximate
07:13AM 42.7811 159.4755 60° Northeast  Level FlightAware Approximate
07:14AM 42.8558 159.6534 60° Northeast  Level FlightAware Approximate
07:15AM 42.9302 159.8318 60° Northeast  Level FlightAware Approximate
07:16AM 43.0038 160.0109 64° Northeast  Level FlightAware Approximate
07:17AM 43.0687 160.1964 64° Northeast  Level FlightAware Approximate
07:18AM 43.1333 160.3824 65° Northeast  Level FlightAware Approximate
07:19AM 43.1976 160.5687 65° Northeast  Level FlightAware Approximate
07:20AM 43.2615 160.7555 65° Northeast  Level FlightAware Approximate
07:21AM 43.3252 160.9426 65° Northeast  Level FlightAware Approximate
07:22AM 43.3909 161.1286 64° Northeast  Level FlightAware Approximate
07:23AM 43.4566 161.3148 64° Northeast  Level FlightAware Approximate
07:24AM 43.5221 161.5014 64° Northeast  Level FlightAware Approximate
07:25AM 43.5872 161.6884 64° Northeast  Level FlightAware Approximate
07:26AM 43.6520 161.8758 64° Northeast  Level FlightAware Approximate
07:27AM 43.7159 162.0640 65° Northeast  Level FlightAware Approximate
07:28AM 43.7787 162.2531 65° Northeast  Level FlightAware Approximate
07:29AM 43.8412 162.4426 65° Northeast  Level FlightAware Approximate
07:30AM 43.9034 162.6325 65° Northeast  Level FlightAware Approximate
07:31AM 43.9653 162.8227 66° East  Level FlightAware Approximate
07:32AM 44.0269 163.0134 66° East  Level FlightAware Approximate
07:33AM 44.0882 163.2045 66° East  Level FlightAware Approximate
07:34AM 44.1491 163.3959 66° East  Level FlightAware Approximate
07:35AM 44.2097 163.5878 66° East  Level FlightAware Approximate
07:36AM 44.2700 163.7800 66° East  Level FlightAware Approximate
07:37AM 44.3300 163.9727 66° East  Level FlightAware Approximate
07:38AM 44.3894 164.1659 67° East  Level FlightAware Approximate
07:39AM 44.4484 164.3595 67° East  Level FlightAware Approximate
07:40AM 44.5071 164.5535 67° East  Level FlightAware Approximate
07:41AM 44.5655 164.7479 67° East  Level FlightAware Approximate
07:42AM 44.6236 164.9427 67° East  Level FlightAware Approximate
07:43AM 44.6813 165.1378 67° East  Level FlightAware Approximate
07:44AM 44.7387 165.3334 67° East  Level FlightAware Approximate
07:45AM 44.7957 165.5293 68° East  Level FlightAware Approximate
07:46AM 44.8524 165.7256 68° East  Level FlightAware Approximate
07:47AM 44.9088 165.9223 68° East  Level FlightAware Approximate
07:48AM 44.9656 166.1190 68° East  Level FlightAware Approximate
07:49AM 45.0222 166.3159 68° East  Level FlightAware Approximate
07:50AM 45.0785 166.5133 68° East  Level FlightAware Approximate
07:50AM 45.0667 166.4167 68° East 555 639 40,000  Level Oakland Oceanic (ODAPS)
07:51AM 45.1344 166.7110 68° East  Level FlightAware Approximate
07:52AM 45.1900 166.9092 68° East  Level FlightAware Approximate
07:53AM 45.2453 167.1077 68° East  Level FlightAware Approximate
07:54AM 45.3002 167.3066 69° East  Level FlightAware Approximate
07:55AM 45.3548 167.5058 69° East  Level FlightAware Approximate
07:56AM 45.3902 167.5979 69° East 555 639 40,000  Level FlightAware Transoceanic
07:57AM 45.4429 167.7960 69° East 555 639 40,000  Level FlightAware Transoceanic
07:58AM 45.4953 167.9946 69° East 555 639 40,000  Level FlightAware Transoceanic
07:59AM 45.5473 168.1935 70° East 555 639 40,000  Level FlightAware Transoceanic
08:00AM 45.5990 168.3927 70° East 555 639 40,000  Level FlightAware Transoceanic
08:01AM 45.6504 168.5924 70° East 555 639 40,000  Level FlightAware Transoceanic
08:02AM 45.7014 168.7924 70° East 555 639 40,000  Level FlightAware Transoceanic
08:03AM 45.7520 168.9927 70° East 555 639 40,000  Level FlightAware Transoceanic
08:04AM 45.8023 169.1935 70° East 555 639 40,000  Level FlightAware Transoceanic
08:04AM 45.8167 169.2500 70° East 554 638 40,000  Level Oakland Oceanic (ODAPS)
08:05AM 45.8523 169.3946 70° East 555 639 40,000  Level FlightAware Transoceanic
08:06AM 45.9019 169.5960 71° East 555 639 40,000  Level FlightAware Transoceanic
08:07AM 45.9511 169.7978 71° East 555 639 40,000  Level FlightAware Transoceanic
08:08AM 46.0000 170.0000 70° East 555 639 40,000  Level FlightAware Transoceanic
08:08AM 46.0500 170.2167 70° East 566 651 40,000  Level Oakland Oceanic (ODAPS)
08:09AM 46.0537 170.2137 70° East 555 639 40,000  Level FlightAware Transoceanic
08:09AM 46.1000 170.4000 70° East 559 643 40,000  Level Oakland Oceanic (ODAPS)
08:10AM 46.1070 170.4279 70° East 554 638 40,000  Level FlightAware Transoceanic
08:11AM 46.1599 170.6424 70° East 554 638 40,000  Level FlightAware Transoceanic
08:12AM 46.2123 170.8574 71° East 554 638 40,000  Level FlightAware Transoceanic
08:13AM 46.2644 171.0728 71° East 554 638 40,000  Level FlightAware Transoceanic
08:14AM 46.3161 171.2885 71° East 554 638 40,000  Level FlightAware Transoceanic
08:15AM 46.3642 171.5072 71° East 566 651 40,000  Level FlightAware Transoceanic
08:16AM 46.4125 171.6971 71° East 559 643 40,000  Level FlightAware Transoceanic
08:17AM 46.4631 171.9147 71° East 559 643 40,000  Level FlightAware Transoceanic
08:18AM 46.5134 172.1327 72° East 559 643 40,000  Level FlightAware Transoceanic
08:18AM 46.5167 172.1667 72° East 565 650 40,000  Level Oakland Oceanic (ODAPS)
08:19AM 46.5632 172.3511 72° East 559 643 40,000  Level FlightAware Transoceanic
08:20AM 46.6126 172.5699 72° East 559 643 40,000  Level FlightAware Transoceanic
08:21AM 46.6616 172.7891 72° East 559 643 40,000  Level FlightAware Transoceanic
08:22AM 46.7102 173.0087 72° East 559 643 40,000  Level FlightAware Transoceanic
08:23AM 46.7583 173.2287 72° East 559 643 40,000  Level FlightAware Transoceanic
08:24AM 46.8084 173.4775 73° East 565 650 40,000  Level FlightAware Transoceanic
08:25AM 46.8556 173.6973 73° East 565 650 40,000  Level FlightAware Transoceanic
08:26AM 46.9023 173.9175 73° East 565 650 40,000  Level FlightAware Transoceanic
08:27AM 46.9487 174.1381 73° East 565 650 40,000  Level FlightAware Transoceanic
08:28AM 46.9945 174.3591 73° East 565 650 40,000  Level FlightAware Transoceanic
08:29AM 47.0400 174.5805 73° East 565 650 40,000  Level FlightAware Transoceanic
08:30AM 47.0851 174.8022 73° East 565 650 40,000  Level FlightAware Transoceanic
08:31AM 47.1297 175.0243 74° East 565 650 40,000  Level FlightAware Transoceanic
08:31AM 47.1667 175.2167 74° East 569 655 40,000  Level Oakland Oceanic (ODAPS)
08:32AM 47.1739 175.2468 74° East 565 650 40,000  Level FlightAware Transoceanic
08:33AM 47.2176 175.4697 74° East 565 650 40,000  Level FlightAware Transoceanic
08:34AM 47.2609 175.6929 74° East 565 650 40,000  Level FlightAware Transoceanic
08:35AM 47.3038 175.9165 74° East 565 650 40,000  Level FlightAware Transoceanic
08:36AM 47.3463 176.1404 74° East 565 650 40,000  Level FlightAware Transoceanic
08:37AM 47.3883 176.3647 75° East 565 650 40,000  Level FlightAware Transoceanic
08:38AM 47.4250 176.5676 75° East 569 655 40,000  Level FlightAware Transoceanic
08:39AM 47.4665 176.7940 75° East 569 655 40,000  Level FlightAware Transoceanic
08:40AM 47.5075 177.0208 75° East 569 655 40,000  Level FlightAware Transoceanic
08:41AM 47.5481 177.2479 75° East 569 655 40,000  Level FlightAware Transoceanic
08:42AM 47.5883 177.4754 75° East 569 655 40,000  Level FlightAware Transoceanic
08:43AM 47.6280 177.7032 76° East 569 655 40,000  Level FlightAware Transoceanic
08:44AM 47.6673 177.9314 76° East 569 655 40,000  Level FlightAware Transoceanic
08:45AM 47.7061 178.1599 76° East 569 655 40,000  Level FlightAware Transoceanic
08:45AM 47.7333 178.3667 76° East 580 667 40,000  Level Oakland Oceanic (ODAPS)
08:46AM 47.7444 178.3888 76° East 569 655 40,000  Level FlightAware Transoceanic
08:47AM 47.7823 178.6180 76° East 569 655 40,000  Level FlightAware Transoceanic
08:48AM 47.8197 178.8475 76° East 569 655 40,000  Level FlightAware Transoceanic
08:49AM 47.8567 179.0774 77° East 569 655 40,000  Level FlightAware Transoceanic
08:50AM 47.8932 179.3075 77° East 569 655 40,000  Level FlightAware Transoceanic
08:51AM 47.9293 179.5380 77° East 569 655 40,000  Level FlightAware Transoceanic
08:52AM 47.9633 179.7657 77° East 580 667 40,000  Level FlightAware Transoceanic
08:52AM 48.0000 180.0000 78° East 589 678 40,000  Level Oakland Oceanic (ODAPS)
08:53AM 48.0000 -180.0000 78° East 580 667 40,000  Level FlightAware Transoceanic
08:54AM 48.0346 -179.7614 78° East 580 667 40,000  Level FlightAware Transoceanic
08:55AM 48.0686 -179.5224 78° East 580 667 40,000  Level FlightAware Transoceanic
08:56AM 48.1022 -179.2832 78° East 580 667 40,000  Level FlightAware Transoceanic
08:57AM 48.1353 -179.0436 78° East 580 667 40,000  Level FlightAware Transoceanic
08:58AM 48.1679 -178.8037 79° East 580 667 40,000  Level FlightAware Transoceanic
08:59AM 48.2000 -178.5635 79° East 589 678 40,000  Level FlightAware Transoceanic
08:59AM 48.2333 -178.3500 79° East 595 685 40,000  Level Oakland Oceanic (ODAPS)
09:00AM 48.2316 -178.3231 79° East 589 678 40,000  Level FlightAware Transoceanic
09:01AM 48.2626 -178.0823 79° East 589 678 40,000  Level FlightAware Transoceanic
09:02AM 48.2932 -177.8412 79° East 589 678 40,000  Level FlightAware Transoceanic
09:03AM 48.3233 -177.5999 79° East 589 678 40,000  Level FlightAware Transoceanic
09:04AM 48.3529 -177.3582 80° East 589 678 40,000  Level FlightAware Transoceanic
09:05AM 48.3880 -177.1025 80° East 595 685 40,000  Level FlightAware Transoceanic
09:06AM 48.4174 -176.8522 80° East 595 685 40,000  Level FlightAware Transoceanic
09:07AM 48.4461 -176.6015 80° East 595 685 40,000  Level FlightAware Transoceanic
09:08AM 48.4744 -176.3505 80° East 595 685 40,000  Level FlightAware Transoceanic
09:09AM 48.5020 -176.0993 81° East 595 685 40,000  Level FlightAware Transoceanic
09:10AM 48.5292 -175.8478 81° East 595 685 40,000  Level FlightAware Transoceanic
09:11AM 48.5558 -175.5960 81° East 595 685 40,000  Level FlightAware Transoceanic
09:12AM 48.5818 -175.3440 81° East 595 685 40,000  Level FlightAware Transoceanic
09:13AM 48.6073 -175.0917 81° East 595 685 40,000  Level FlightAware Transoceanic
09:13AM 48.6167 -174.9833 81° East 596 686 40,000  Level Oakland Oceanic (ODAPS)
09:14AM 48.6322 -174.8392 82° East 595 685 40,000  Level FlightAware Transoceanic
09:15AM 48.6566 -174.5864 82° East 595 685 40,000  Level FlightAware Transoceanic
09:16AM 48.6805 -174.3334 82° East 595 685 40,000  Level FlightAware Transoceanic
09:17AM 48.7037 -174.0801 82° East 595 685 40,000  Level FlightAware Transoceanic
09:18AM 48.7265 -173.8266 82° East 595 685 40,000  Level FlightAware Transoceanic
09:19AM 48.7542 -173.4966 83° East 596 686 40,000  Level FlightAware Transoceanic
09:20AM 48.7752 -173.2481 83° East 596 686 40,000  Level FlightAware Transoceanic
09:21AM 48.7958 -172.9993 83° East 596 686 40,000  Level FlightAware Transoceanic
09:22AM 48.8157 -172.7504 83° East 596 686 40,000  Level FlightAware Transoceanic
09:23AM 48.8352 -172.5012 83° East 596 686 40,000  Level FlightAware Transoceanic
09:24AM 48.8541 -172.2518 84° East 596 686 40,000  Level FlightAware Transoceanic
09:25AM 48.8725 -172.0023 84° East 596 686 40,000  Level FlightAware Transoceanic
09:26AM 48.8903 -171.7526 84° East 596 686 40,000  Level FlightAware Transoceanic
09:27AM 48.9076 -171.5027 84° East 596 686 40,000  Level FlightAware Transoceanic
09:27AM 48.9000 -171.5333 84° East 603 694 40,000  Level Oakland Oceanic (ODAPS)
09:28AM 48.9244 -171.2527 84° East 596 686 40,000  Level FlightAware Transoceanic
09:29AM 48.9406 -171.0024 84° East 596 686 40,000  Level FlightAware Transoceanic
09:30AM 48.9562 -170.7521 85° East 596 686 40,000  Level FlightAware Transoceanic
09:31AM 48.9714 -170.5015 85° East 596 686 40,000  Level FlightAware Transoceanic
09:32AM 48.9860 -170.2508 85° East 596 686 40,000  Level FlightAware Transoceanic
09:33AM 49.0000 -170.0000 86° East 603 694 40,000  Level FlightAware Transoceanic
09:33AM 49.0000 -170.0000 86° East 603 694 40,000  Level Oakland Oceanic (ODAPS)
09:34AM 49.0103 -169.7567 86° East 603 694 40,000  Level FlightAware Transoceanic
09:35AM 49.0201 -169.5134 87° East 603 694 40,000  Level FlightAware Transoceanic
09:36AM 49.0293 -169.2700 87° East 603 694 40,000  Level FlightAware Transoceanic
09:37AM 49.0381 -169.0264 87° East 603 694 40,000  Level FlightAware Transoceanic
09:38AM 49.0463 -168.7828 87° East 603 694 40,000  Level FlightAware Transoceanic
09:39AM 49.0540 -168.5392 87° East 603 694 40,000  Level FlightAware Transoceanic
09:40AM 49.0624 -168.2527 88° East 603 694 40,000  Level FlightAware Transoceanic
09:41AM 49.0692 -168.0028 88° East 603 694 40,000  Level FlightAware Transoceanic
09:41AM 49.0667 -168.0000 88° East 603 694 40,000  Level Oakland Oceanic (ODAPS)
09:42AM 49.0754 -167.7528 88° East 603 694 40,000  Level FlightAware Transoceanic
09:43AM 49.0811 -167.5027 88° East 603 694 40,000  Level FlightAware Transoceanic
09:44AM 49.0862 -167.2526 88° East 603 694 40,000  Level FlightAware Transoceanic
09:45AM 49.0908 -167.0024 88° East 603 694 40,000  Level FlightAware Transoceanic
09:46AM 49.0949 -166.7522 89° East 603 694 40,000  Level FlightAware Transoceanic
09:47AM 49.0963 -166.4998 89° East 603 694 40,000  Level FlightAware Transoceanic
09:48AM 49.0994 -166.2496 89° East 603 694 40,000  Level FlightAware Transoceanic
09:49AM 49.1019 -165.9994 89° East 603 694 40,000  Level FlightAware Transoceanic
09:50AM 49.1039 -165.7491 89° East 603 694 40,000  Level FlightAware Transoceanic
09:51AM 49.1053 -165.4989 90° East 603 694 40,000  Level FlightAware Transoceanic
09:52AM 49.1062 -165.2486 90° East 603 694 40,000  Level FlightAware Transoceanic
09:53AM 49.1065 -164.9984 90° East 603 694 40,000  Level FlightAware Transoceanic
09:54AM 49.1063 -164.7481 90° East 603 694 40,000  Level FlightAware Transoceanic
09:55AM 49.1056 -164.4978 90° East 603 694 40,000  Level FlightAware Transoceanic
09:55AM 49.1000 -164.4333 90° East 608 700 40,000  Level Oakland Oceanic (ODAPS)
09:56AM 49.1043 -164.2476 91° East 603 694 40,000  Level FlightAware Transoceanic
09:57AM 49.1025 -163.9973 91° East 603 694 40,000  Level FlightAware Transoceanic
09:58AM 49.1001 -163.7471 91° East 603 694 40,000  Level FlightAware Transoceanic
09:59AM 49.0972 -163.4969 91° East 603 694 40,000  Level FlightAware Transoceanic
10:00AM 49.0938 -163.2467 91° East 603 694 40,000  Level FlightAware Transoceanic
10:01AM 49.0841 -162.8668 91° East 608 700 40,000  Level FlightAware Transoceanic
10:02AM 49.0794 -162.6058 92° East 608 700 40,000  Level FlightAware Transoceanic
10:03AM 49.0741 -162.3449 92° East 608 700 40,000  Level FlightAware Transoceanic
10:04AM 49.0682 -162.0840 92° East 608 700 40,000  Level FlightAware Transoceanic
10:05AM 49.0617 -161.8232 92° East 608 700 40,000  Level FlightAware Transoceanic
10:06AM 49.0547 -161.5625 92° East 608 700 40,000  Level FlightAware Transoceanic
10:07AM 49.0470 -161.3018 93° East 608 700 40,000  Level FlightAware Transoceanic
10:08AM 49.0388 -161.0413 93° East 608 700 40,000  Level FlightAware Transoceanic
10:09AM 49.0300 -160.7808 93° East 608 700 40,000  Level FlightAware Transoceanic
10:09AM 49.0333 -160.8833 93° East 610 702 40,000  Level Oakland Oceanic (ODAPS)
10:10AM 49.0206 -160.5204 93° East 608 700 40,000  Level FlightAware Transoceanic
10:11AM 49.0106 -160.2602 93° East 608 700 40,000  Level FlightAware Transoceanic
10:12AM 49.0000 -160.0000 95° East 608 700 40,000 600 Level FlightAware Transoceanic
10:12AM 49.0000 -160.0000 95° East 598 688 41,000  Climbing Oakland Oceanic (ODAPS)
10:13AM 48.9864 -159.7579 95° East 608 700 40,000 -780 Descending FlightAware Transoceanic
10:14AM 48.9722 -159.5159 95° East 608 700 40,000  Level FlightAware Transoceanic
10:15AM 48.9576 -159.2741 95° East 610 702 40,000  Level FlightAware Transoceanic
10:16AM 48.9425 -159.0325 96° East 610 702 40,000  Level FlightAware Transoceanic
10:17AM 48.9268 -158.7909 96° East 610 702 40,000 480 Level FlightAware Transoceanic
10:18AM 48.9083 -158.5143 96° East 598 688 41,000 480 Climbing FlightAware Transoceanic
10:19AM 48.8911 -158.2672 96° East 598 688 41,000  Level FlightAware Transoceanic
10:20AM 48.8734 -158.0203 96° East 598 688 41,000  Level FlightAware Transoceanic
10:21AM 48.8553 -157.7736 96° East 598 688 41,000  Level FlightAware Transoceanic
10:22AM 48.8365 -157.5270 97° East 598 688 41,000  Level FlightAware Transoceanic
10:22AM 48.8333 -157.3833 97° East 589 678 41,000  Level Oakland Oceanic (ODAPS)
10:23AM 48.8173 -157.2807 97° East 598 688 41,000  Level FlightAware Transoceanic
10:24AM 48.7975 -157.0345 97° East 598 688 41,000  Level FlightAware Transoceanic
10:25AM 48.7772 -156.7885 97° East 598 688 41,000  Level FlightAware Transoceanic
10:26AM 48.7564 -156.5428 97° East 598 688 41,000  Level FlightAware Transoceanic
10:27AM 48.7350 -156.2972 98° East 598 688 41,000  Level FlightAware Transoceanic
10:28AM 48.7132 -156.0519 98° East 598 688 41,000  Level FlightAware Transoceanic
10:29AM 48.7047 -155.8883 98° East 589 678 41,000  Level FlightAware Transoceanic
10:30AM 48.6814 -155.6399 98° East 589 678 41,000  Level FlightAware Transoceanic
10:31AM 48.6575 -155.3917 98° East 589 678 41,000  Level FlightAware Transoceanic
10:32AM 48.6331 -155.1438 99° East 589 678 41,000  Level FlightAware Transoceanic
10:33AM 48.6082 -154.8961 99° East 589 678 41,000  Level FlightAware Transoceanic
10:34AM 48.5828 -154.6486 99° East 589 678 41,000  Level FlightAware Transoceanic
10:35AM 48.5568 -154.4014 99° East 589 678 41,000  Level FlightAware Transoceanic
10:36AM 48.5303 -154.1545 99° East 589 678 41,000  Level FlightAware Transoceanic
10:36AM 48.5000 -153.9333 99° East 600 690 41,000  Level Oakland Oceanic (ODAPS)
10:37AM 48.5033 -153.9078 99° East 589 678 41,000  Level FlightAware Transoceanic
10:38AM 48.4757 -153.6614 100° East 589 678 41,000  Level FlightAware Transoceanic
10:39AM 48.4477 -153.4152 100° East 589 678 41,000  Level FlightAware Transoceanic
10:40AM 48.4190 -153.1694 100° East 589 678 41,000  Level FlightAware Transoceanic
10:41AM 48.3899 -152.9238 100° East 589 678 41,000  Level FlightAware Transoceanic
10:42AM 48.3603 -152.6785 100° East 589 678 41,000  Level FlightAware Transoceanic
10:43AM 48.3283 -152.4494 100° East 600 690 41,000  Level FlightAware Transoceanic
10:44AM 48.2978 -152.2031 101° East 600 690 41,000  Level FlightAware Transoceanic
10:45AM 48.2668 -151.9570 101° East 600 690 41,000  Level FlightAware Transoceanic
10:46AM 48.2352 -151.7113 101° East 600 690 41,000  Level FlightAware Transoceanic
10:47AM 48.2032 -151.4659 101° East 600 690 41,000  Level FlightAware Transoceanic
10:48AM 48.1706 -151.2208 101° East 600 690 41,000  Level FlightAware Transoceanic
10:49AM 48.1375 -150.9760 102° East 600 690 41,000  Level FlightAware Transoceanic
10:50AM 48.1039 -150.7315 102° East 600 690 41,000  Level FlightAware Transoceanic
10:50AM 48.0667 -150.5167 101° East 602 693 41,000  Level Oakland Oceanic (ODAPS)
10:51AM 48.0698 -150.4873 102° East 600 690 41,000  Level FlightAware Transoceanic
10:52AM 48.0352 -150.2435 102° East 600 690 41,000  Level FlightAware Transoceanic
10:52AM 48.0000 -150.0000 110° East 589 678 41,000  Level Oakland Oceanic (ODAPS)
10:53AM 48.0000 -150.0000 110° East 600 690 41,000  Level FlightAware Transoceanic
10:54AM 47.9456 -149.7759 110° East 600 690 41,000  Level FlightAware Transoceanic
10:55AM 47.8907 -149.5523 110° East 600 690 41,000  Level FlightAware Transoceanic
10:56AM 47.8354 -149.3291 110° East 600 690 41,000  Level FlightAware Transoceanic
10:57AM 47.7796 -149.1064 111° Southeast 602 693 41,000  Level FlightAware Transoceanic
10:58AM 47.7235 -148.8842 111° Southeast 602 693 41,000  Level FlightAware Transoceanic
10:59AM 47.6595 -148.6336 111° Southeast 589 678 41,000  Level FlightAware Transoceanic
11:00AM 47.6011 -148.4076 111° Southeast 589 678 41,000  Level FlightAware Transoceanic
11:01AM 47.5424 -148.1822 111° Southeast 589 678 41,000  Level FlightAware Transoceanic
11:02AM 47.4831 -147.9572 111° Southeast 589 678 41,000  Level FlightAware Transoceanic
11:03AM 47.4235 -147.7327 112° Southeast 589 678 41,000  Level FlightAware Transoceanic
11:04AM 47.3634 -147.5088 112° Southeast 589 678 41,000  Level FlightAware Transoceanic
11:04AM 47.3167 -147.3500 112° Southeast 583 671 41,000  Level Oakland Oceanic (ODAPS)
11:05AM 47.3029 -147.2854 112° Southeast 589 678 41,000  Level FlightAware Transoceanic
11:06AM 47.2419 -147.0624 112° Southeast 589 678 41,000  Level FlightAware Transoceanic
11:07AM 47.1805 -146.8400 112° Southeast 589 678 41,000  Level FlightAware Transoceanic
11:08AM 47.1187 -146.6181 112° Southeast 589 678 41,000  Level FlightAware Transoceanic
11:09AM 47.0565 -146.3967 113° Southeast 589 678 41,000  Level FlightAware Transoceanic
11:10AM 46.9938 -146.1759 113° Southeast 589 678 41,000  Level FlightAware Transoceanic
11:11AM 46.8917 -145.8306 113° Southeast 583 671 41,000  Level FlightAware Transoceanic
11:12AM 46.8293 -145.6156 113° Southeast 583 671 41,000  Level FlightAware Transoceanic
11:13AM 46.7665 -145.4010 113° Southeast 583 671 41,000  Level FlightAware Transoceanic
11:14AM 46.7034 -145.1870 113° Southeast 583 671 41,000  Level FlightAware Transoceanic
11:15AM 46.6399 -144.9734 114° Southeast 583 671 41,000  Level FlightAware Transoceanic
11:16AM 46.5759 -144.7603 114° Southeast 583 671 41,000  Level FlightAware Transoceanic
11:17AM 46.5116 -144.5478 114° Southeast 583 671 41,000  Level FlightAware Transoceanic
11:18AM 46.4468 -144.3357 114° Southeast 583 671 41,000  Level FlightAware Transoceanic
11:18AM 46.4500 -144.3500 114° Southeast 577 664 41,000  Level Oakland Oceanic (ODAPS)
11:19AM 46.3817 -144.1242 114° Southeast 583 671 41,000  Level FlightAware Transoceanic
11:20AM 46.3162 -143.9131 114° Southeast 583 671 41,000  Level FlightAware Transoceanic
11:21AM 46.2503 -143.7026 114° Southeast 583 671 41,000  Level FlightAware Transoceanic
11:22AM 46.1840 -143.4926 115° Southeast 583 671 41,000  Level FlightAware Transoceanic
11:23AM 46.1174 -143.2831 115° Southeast 583 671 41,000  Level FlightAware Transoceanic
11:24AM 46.0527 -143.0841 115° Southeast 577 664 41,000  Level FlightAware Transoceanic
11:25AM 45.9851 -142.8749 115° Southeast 577 664 41,000  Level FlightAware Transoceanic
11:26AM 45.9172 -142.6662 115° Southeast 577 664 41,000  Level FlightAware Transoceanic
11:27AM 45.8488 -142.4581 115° Southeast 577 664 41,000  Level FlightAware Transoceanic
11:28AM 45.7801 -142.2504 115° Southeast 577 664 41,000  Level FlightAware Transoceanic
11:29AM 45.7110 -142.0432 116° Southeast 577 664 41,000  Level FlightAware Transoceanic
11:30AM 45.6416 -141.8366 116° Southeast 577 664 41,000  Level FlightAware Transoceanic
11:31AM 45.5718 -141.6305 116° Southeast 577 664 41,000  Level FlightAware Transoceanic
11:32AM 45.5016 -141.4249 116° Southeast 577 664 41,000  Level FlightAware Transoceanic
11:32AM 45.5167 -141.4667 116° Southeast 579 666 41,000  Level Oakland Oceanic (ODAPS)
11:33AM 45.4310 -141.2198 116° Southeast 577 664 41,000  Level FlightAware Transoceanic
11:34AM 45.3601 -141.0152 116° Southeast 577 664 41,000  Level FlightAware Transoceanic
11:35AM 45.2888 -140.8111 116° Southeast 577 664 41,000  Level FlightAware Transoceanic
11:36AM 45.2171 -140.6076 117° Southeast 577 664 41,000  Level FlightAware Transoceanic
11:37AM 45.1451 -140.4045 117° Southeast 577 664 41,000  Level FlightAware Transoceanic
11:38AM 45.0750 -140.2079 117° Southeast 579 666 41,000  Level FlightAware Transoceanic
11:39AM 45.0000 -140.0000 121° Southeast 579 666 41,000  Level FlightAware Transoceanic
11:39AM 45.0000 -140.0000 121° Southeast 569 655 41,000  Level Oakland Oceanic (ODAPS)
11:40AM 44.9229 -139.8168 121° Southeast 579 666 41,000  Level FlightAware Transoceanic
11:41AM 44.8455 -139.6341 121° Southeast 579 666 41,000  Level FlightAware Transoceanic
11:42AM 44.7678 -139.4519 121° Southeast 579 666 41,000  Level FlightAware Transoceanic
11:43AM 44.6898 -139.2702 121° Southeast 579 666 41,000  Level FlightAware Transoceanic
11:44AM 44.6116 -139.0890 121° Southeast 579 666 41,000  Level FlightAware Transoceanic
11:45AM 44.5165 -138.8703 121° Southeast 569 655 41,000  Level FlightAware Transoceanic
11:46AM 44.4348 -138.6839 122° Southeast 569 655 41,000  Level FlightAware Transoceanic
11:46AM 44.4500 -138.7167 122° Southeast 564 649 41,000  Level Oakland Oceanic (ODAPS)
11:47AM 44.3528 -138.4979 122° Southeast 569 655 41,000  Level FlightAware Transoceanic
11:48AM 44.2706 -138.3125 122° Southeast 569 655 41,000  Level FlightAware Transoceanic
11:49AM 44.1880 -138.1276 122° Southeast 569 655 41,000  Level FlightAware Transoceanic
11:50AM 44.1051 -137.9433 122° Southeast 569 655 41,000  Level FlightAware Transoceanic
11:51AM 44.0220 -137.7594 122° Southeast 569 655 41,000  Level FlightAware Transoceanic
11:52AM 43.9522 -137.6045 122° Southeast 564 649 41,000  Level FlightAware Transoceanic
11:53AM 43.8682 -137.4209 122° Southeast 564 649 41,000  Level FlightAware Transoceanic
11:54AM 43.7839 -137.2379 123° Southeast 564 649 41,000  Level FlightAware Transoceanic
11:55AM 43.6993 -137.0554 123° Southeast 564 649 41,000  Level FlightAware Transoceanic
11:56AM 43.6144 -136.8734 123° Southeast 564 649 41,000  Level FlightAware Transoceanic
11:57AM 43.5292 -136.6919 123° Southeast 564 649 41,000  Level FlightAware Transoceanic
11:58AM 43.4437 -136.5109 123° Southeast 564 649 41,000  Level FlightAware Transoceanic
11:59AM 43.3580 -136.3305 123° Southeast 564 649 41,000  Level FlightAware Transoceanic
12:00PM 43.2720 -136.1505 123° Southeast 564 649 41,000  Level FlightAware Transoceanic
12:00PM 43.2667 -136.1500 123° Southeast 559 643 41,000  Level Oakland Oceanic (ODAPS)
12:01PM 43.1857 -135.9711 123° Southeast 564 649 41,000  Level FlightAware Transoceanic
12:02PM 43.0991 -135.7921 124° Southeast 564 649 41,000  Level FlightAware Transoceanic
12:03PM 43.0122 -135.6137 124° Southeast 564 649 41,000  Level FlightAware Transoceanic
12:04PM 42.9251 -135.4358 124° Southeast 564 649 41,000  Level FlightAware Transoceanic
12:05PM 42.8377 -135.2584 124° Southeast 564 649 41,000  Level FlightAware Transoceanic
12:06PM 42.7455 -135.0811 124° Southeast 559 643 41,000  Level FlightAware Transoceanic
12:07PM 42.6577 -134.9047 124° Southeast 559 643 41,000  Level FlightAware Transoceanic
12:08PM 42.5696 -134.7288 124° Southeast 559 643 41,000  Level FlightAware Transoceanic
12:09PM 42.4813 -134.5534 124° Southeast 559 643 41,000  Level FlightAware Transoceanic
12:10PM 42.3927 -134.3785 125° Southeast 559 643 41,000  Level FlightAware Transoceanic
12:11PM 42.3038 -134.2041 125° Southeast 559 643 41,000  Level FlightAware Transoceanic
12:12PM 42.2146 -134.0302 125° Southeast 559 643 41,000  Level FlightAware Transoceanic
12:13PM 42.1252 -133.8568 125° Southeast 559 643 41,000  Level FlightAware Transoceanic
12:13PM 42.0667 -133.7333 125° Southeast 558 642 41,000  Level Oakland Oceanic (ODAPS)
12:14PM 42.0356 -133.6839 125° Southeast 559 643 41,000  Level FlightAware Transoceanic
12:15PM 41.9456 -133.5114 125° Southeast 559 643 41,000  Level FlightAware Transoceanic
12:16PM 41.8554 -133.3394 125° Southeast 559 643 41,000  Level FlightAware Transoceanic
12:17PM 41.7650 -133.1680 125° Southeast 559 643 41,000  Level FlightAware Transoceanic
12:18PM 41.6743 -132.9970 125° Southeast 559 643 41,000  Level FlightAware Transoceanic
12:19PM 41.5834 -132.8265 126° Southeast 559 643 41,000  Level FlightAware Transoceanic
12:20PM 41.5151 -132.6918 126° Southeast 558 642 41,000  Level FlightAware Transoceanic
12:21PM 41.4223 -132.5199 126° Southeast 558 642 41,000  Level FlightAware Transoceanic
12:22PM 41.3292 -132.3485 126° Southeast 558 642 41,000  Level FlightAware Transoceanic
12:23PM 41.2358 -132.1776 126° Southeast 558 642 41,000  Level FlightAware Transoceanic
12:24PM 41.1422 -132.0073 126° Southeast 558 642 41,000  Level FlightAware Transoceanic
12:25PM 41.0484 -131.8374 126° Southeast 558 642 41,000  Level FlightAware Transoceanic
12:26PM 40.9543 -131.6679 126° Southeast 558 642 41,000  Level FlightAware Transoceanic
12:27PM 40.8600 -131.4990 127° Southeast 558 642 41,000  Level FlightAware Transoceanic
12:27PM 40.8000 -131.4000 126° Southeast 546 628 41,000  Level Oakland Oceanic (ODAPS)
12:28PM 40.7654 -131.3305 127° Southeast 558 642 41,000  Level FlightAware Transoceanic
12:29PM 40.6705 -131.1626 127° Southeast 558 642 41,000  Level FlightAware Transoceanic
12:30PM 40.5755 -130.9951 127° Southeast 558 642 41,000  Level FlightAware Transoceanic
12:31PM 40.4801 -130.8280 127° Southeast 558 642 41,000  Level FlightAware Transoceanic
12:32PM 40.3846 -130.6615 127° Southeast 558 642 41,000  Level FlightAware Transoceanic
12:33PM 40.2888 -130.4954 127° Southeast 558 642 41,000  Level FlightAware Transoceanic
12:34PM 40.2016 -130.3469 127° Southeast 546 628 41,000  Level FlightAware Transoceanic
12:35PM 40.1009 -130.1732 127° Southeast 546 628 41,000  Level FlightAware Transoceanic
12:36PM 40.0000 -130.0000 122° Southeast 546 628 41,000  Level FlightAware Transoceanic
12:36PM 40.0000 -130.0000 122° Southeast 549 632 41,000  Level Oakland Oceanic (ODAPS)
12:37PM 39.9212 -129.8388 123° Southeast 546 628 41,000  Level FlightAware Transoceanic
12:38PM 39.8423 -129.6780 123° Southeast 546 628 41,000  Level FlightAware Transoceanic
12:39PM 39.7631 -129.5175 123° Southeast 546 628 41,000  Level FlightAware Transoceanic
12:40PM 39.6837 -129.3575 123° Southeast 546 628 41,000  Level FlightAware Transoceanic
12:41PM 39.6040 -129.1978 123° Southeast 546 628 41,000  Level FlightAware Transoceanic
12:42PM 39.5242 -129.0384 123° Southeast 546 628 41,000  Level FlightAware Transoceanic
12:42PM 39.5833 -129.1500 123° Southeast 546 628 41,000  Level Oakland Oceanic (ODAPS)
12:43PM 39.4441 -128.8795 123° Southeast 549 632 41,000  Level FlightAware Transoceanic
12:44PM 39.3638 -128.7208 123° Southeast 549 632 41,000  Level FlightAware Transoceanic
12:45PM 39.2833 -128.5626 123° Southeast 549 632 41,000  Level FlightAware Transoceanic
12:46PM 39.2026 -128.4047 123° Southeast 549 632 41,000  Level FlightAware Transoceanic
12:47PM 39.1216 -128.2472 124° Southeast 549 632 41,000  Level FlightAware Transoceanic
12:48PM 39.0299 -128.0665 124° Southeast 546 628 41,000  Level FlightAware Transoceanic
12:49PM 38.9501 -127.9131 124° Southeast 546 628 41,000  Level FlightAware Transoceanic
12:50PM 38.8700 -127.7601 124° Southeast 546 628 41,000  Level FlightAware Transoceanic
12:51PM 38.7897 -127.6074 124° Southeast 546 628 41,000  Level FlightAware Transoceanic
12:52PM 38.7093 -127.4550 124° Southeast 546 628 41,000  Level FlightAware Transoceanic
12:52PM 38.6589 -127.3567 111° Southeast 541 623 41,000  Level Oakland Center
12:53PM 38.6286 -127.3030 124° Southeast 546 628 41,000 -120 Level FlightAware Transoceanic
12:53PM 38.5728 -127.1986 125° Southeast 543 625 40,900  Descending Oakland Center
12:54PM 38.5477 -127.1513 124° Southeast 546 628 41,000 60 Climbing FlightAware Transoceanic
12:55PM 38.4667 -127.0000 111° Southeast 546 628 41,000  Level FlightAware Transoceanic
12:56PM 38.4094 -126.8114 111° Southeast 546 628 41,000  Level FlightAware Transoceanic
12:57PM 38.3518 -126.6232 111° Southeast 546 628 41,000  Level FlightAware Transoceanic
12:59PM 38.1540 -126.1310 125° Southeast 543 625 41,000  Level FlightAware
01:00PM 38.1200 -126.0370 115° Southeast 543 625 41,000  Level FlightAware
01:00PM 38.0790 -125.9270 115° Southeast 542 624 41,000  Level FlightAware
01:01PM 38.0400 -125.8230 115° Southeast 544 626 41,000  Level FlightAware
01:02PM 38.0080 -125.7360 115° Southeast 545 627 41,000  Level FlightAware
01:02PM 37.9550 -125.5940 115° Southeast 545 627 41,000  Level FlightAware
01:03PM 37.9230 -125.5050 114° Southeast 545 627 41,000  Level FlightAware
01:04PM 37.8760 -125.3860 117° Southeast 543 625 41,000  Level FlightAware
01:04PM 37.8380 -125.2840 115° Southeast 539 620 41,000  Level FlightAware
01:05PM 37.8000 -125.1850 116° Southeast 537 618 41,000  Level FlightAware
01:05PM 37.7610 -125.0810 115° Southeast 540 621 41,000  Level FlightAware
01:06PM 37.7220 -124.9820 116° Southeast 542 624 41,000  Level FlightAware
01:07PM 37.6820 -124.8780 116° Southeast 543 625 41,000  Level FlightAware
01:07PM 37.6490 -124.7870 115° Southeast 543 625 41,000  Level FlightAware
01:08PM 37.6030 -124.6700 116° Southeast 544 626 41,000  Level FlightAware
01:08PM 37.5640 -124.5700 116° Southeast 541 623 41,000  Level FlightAware
01:09PM 37.5250 -124.4700 116° Southeast 539 620 41,000  Level FlightAware
01:10PM 37.4890 -124.3770 116° Southeast 539 620 41,000  Level FlightAware
01:10PM 37.4530 -124.2850 116° Southeast 539 620 41,000  Level FlightAware
01:11PM 37.3990 -124.1480 116° Southeast 538 619 41,000  Level FlightAware
01:12PM 37.3640 -124.0570 116° Southeast 538 619 41,000  Level FlightAware
01:12PM 37.3090 -123.9200 117° Southeast 539 620 41,000  Level FlightAware
01:13PM 37.2680 -123.8170 117° Southeast 541 623 41,000  Level FlightAware
01:13PM 37.2330 -123.7300 117° Southeast 542 624 41,000  Level FlightAware
01:14PM 37.1940 -123.6320 117° Southeast 542 624 41,000  Level FlightAware
01:15PM 37.1510 -123.5240 117° Southeast 541 623 41,000  Level FlightAware
01:15PM 37.1110 -123.4260 117° Southeast 543 625 41,000  Level FlightAware
01:16PM 37.0810 -123.3510 117° Southeast 542 624 41,000  Level FlightAware
01:16PM 37.0370 -123.2420 117° Southeast 544 626 41,000  Level FlightAware
01:17PM 36.9980 -123.1450 117° Southeast 547 629 41,000  Level FlightAware
01:17PM 36.9590 -123.0490 117° Southeast 548 631 41,000  Level FlightAware
01:18PM 36.9180 -122.9500 117° Southeast 546 628 41,000  Level FlightAware
01:19PM 36.8770 -122.8490 117° Southeast 547 629 41,000  Level FlightAware
01:19PM 36.8390 -122.7570 117° Southeast 545 627 41,000  Level FlightAware
01:20PM 36.7960 -122.6520 117° Southeast 545 627 41,000  Level FlightAware
01:20PM 36.7560 -122.5540 117° Southeast 544 626 41,000  Level FlightAware
01:21PM 36.7150 -122.4570 118° Southeast 544 626 41,000  Level FlightAware
01:22PM 36.6750 -122.3600 117° Southeast 541 623 41,000  Level FlightAware
01:22PM 36.6318 -122.2560 117° Southeast 521 600 41,000  Level FlightAware ADS-B
01:23PM 36.5980 -122.1750 117° Southeast 512 589 41,000  Level FlightAware
01:23PM 36.5590 -122.0830 118° Southeast 501 577 41,000  Level FlightAware
01:24PM 36.5220 -121.9940 117° Southeast 494 568 41,000  Level FlightAware
01:24PM 36.4860 -121.9090 118° Southeast 499 574 41,000  Level FlightAware
01:25PM 36.4560 -121.8380 118° Southeast 499 574 41,000  Level FlightAware
01:26PM 36.4156 -121.7390 117° Southeast 505 581 41,000  Level FlightAware ADS-B
01:26PM 36.3970 -121.6230 101° East 511 588 41,000  Level FlightAware ADS-B
01:27PM 36.4010 -121.4380 88° East 544 626 41,000  Level FlightAware
01:27PM 36.4025 -121.4060 87° East 544 626 41,000  Level FlightAware ADS-B
01:28PM 36.4090 -121.2250 87° East 542 624 41,000  Level FlightAware
01:29PM 36.4130 -121.1140 87° East 541 623 41,000  Level FlightAware
01:30PM 36.4180 -121.0020 87° East 542 624 41,000  Level FlightAware
01:30PM 36.4220 -120.8970 87° East 540 621 41,000  Level FlightAware
01:31PM 36.4270 -120.8020 86° East 542 624 41,000  Level FlightAware
01:31PM 36.4316 -120.6880 87° East 543 625 41,000  Level FlightAware ADS-B
01:32PM 36.4230 -120.5970 97° East 516 594 41,000  Level FlightAware
01:32PM 36.4060 -120.5420 111° Southeast 496 571 41,000  Level FlightAware
01:32PM 36.3760 -120.4880 125° Southeast 471 542 41,000  Level FlightAware
01:33PM 36.3350 -120.4430 139° Southeast 440 506 41,000  Level FlightAware
01:33PM 36.3000 -120.4210 153° Southeast 415 478 41,000  Level FlightAware
01:34PM 36.2630 -120.4110 168° South 391 450 41,000  Level FlightAware
01:34PM 36.2030 -120.4190 186° South 364 419 41,000  Level FlightAware
01:35PM 36.1426 -120.4350 192° South 374 430 41,000  Level FlightAware ADS-B
01:35PM 36.1102 -120.4330 177° South 395 455 41,000  Level FlightAware ADS-B
01:35PM 36.0797 -120.4240 167° South 410 472 41,000  Level FlightAware ADS-B
01:36PM 36.0603 -120.4140 157° South 424 488 41,000  Level FlightAware ADS-B
01:36PM 36.0536 -120.4100 154° Southeast 429 494 41,000  Level FlightAware ADS-B
01:36PM 36.0248 -120.3860 146° Southeast 451 519 41,000  Level FlightAware ADS-B
01:37PM 35.9280 -120.2920 142° Southeast 470 541 41,000  Level FlightAware
01:37PM 35.8680 -120.2320 141° Southeast 480 552 41,000  Level FlightAware
01:38PM 35.8040 -120.1700 142° Southeast 461 531 41,000  Level FlightAware
01:39PM 35.7530 -120.1200 141° Southeast 447 514 41,000  Level FlightAware
01:39PM 35.6920 -120.0610 142° Southeast 448 516 41,000  Level FlightAware
01:40PM 35.6380 -120.0150 145° Southeast 442 509 41,000  Level FlightAware
01:40PM 35.5960 -119.9960 160° South 425 489 41,000 -360 Level FlightAware
01:41PM 35.5240 -119.9720 165° South 420 483 40,700 -840 Descending FlightAware
01:41PM 35.4670 -119.9530 165° South 414 476 40,100 -1,200 Descending FlightAware
01:42PM 35.4050 -119.9320 165° South 403 464 39,400 -1,320 Descending FlightAware
01:42PM 35.3340 -119.9080 165° South 399 459 38,500 -1,500 Descending FlightAware
01:43PM 35.2790 -119.8880 163° South 394 453 37,700 -1,380 Descending FlightAware
01:44PM 35.2150 -119.8650 164° South 388 447 36,900 -1,260 Descending FlightAware
01:44PM 35.1780 -119.8450 156° South 408 470 36,500 -1,200 Descending FlightAware
01:44PM 35.1500 -119.8190 143° Southeast 425 489 36,100 -1,260 Descending FlightAware
01:45PM 35.1290 -119.7890 131° Southeast 444 511 35,800 -1,200 Descending FlightAware
01:45PM 35.1080 -119.7460 121° Southeast 464 534 35,400 -1,200 Descending FlightAware
01:45PM 35.0930 -119.6900 108° East 482 555 35,000 -600 Descending FlightAware
01:46PM 35.0890 -119.6380 95° East 497 572 35,000  Level FlightAware
01:46PM 35.0970 -119.5670 82° East 511 588 35,000  Level FlightAware
01:46PM 35.1210 -119.4930 68° East 520 598 35,000  Level FlightAware
01:47PM 35.1480 -119.4460 55° Northeast 522 601 35,000  Level FlightAware
01:47PM 35.1820 -119.4050 45° Northeast 515 593 35,000  Level FlightAware
01:48PM 35.2280 -119.3700 32° Northeast 502 578 35,000  Level FlightAware
01:48PM 35.2870 -119.3470 18° North 478 550 35,000  Level FlightAware
01:48PM 35.3300 -119.3430 North 456 525 35,000  Level FlightAware
01:49PM 35.3790 -119.3530 351° North 423 487 35,000  Level FlightAware
01:49PM 35.4150 -119.3740 335° Northwest 394 453 35,000  Level FlightAware
01:49PM 35.4420 -119.4010 321° Northwest 366 421 35,000  Level FlightAware
01:50PM 35.4560 -119.4220 309° West 349 402 35,000  Level FlightAware
01:50PM 35.4660 -119.4460 297° West 332 382 35,000  Level FlightAware
01:50PM 35.4710 -119.4700 284° West 318 366 35,000  Level FlightAware
01:51PM 35.4680 -119.5290 266° West 300 345 35,000  Level FlightAware
01:51PM 35.4600 -119.5490 244° Southwest 298 343 35,000  Level FlightAware
01:51PM 35.4470 -119.5690 231° Southwest 301 346 35,000  Level FlightAware
01:51PM 35.4260 -119.5860 213° Southwest 314 361 35,000  Level FlightAware
01:52PM 35.4110 -119.5930 201° Southwest 325 374 35,000  Level FlightAware
01:52PM 35.3910 -119.5960 187° South 344 396 35,000  Level FlightAware
01:52PM 35.3520 -119.5830 165° South 388 447 35,000 -420 Level FlightAware
01:53PM 35.3010 -119.5470 150° Southeast 396 456 34,600 -2,160 Descending FlightAware
01:53PM 35.2480 -119.5080 149° Southeast 425 489 32,600 -3,000 Descending FlightAware
01:54PM 35.1740 -119.4550 150° Southeast 430 495 30,900 -2,280 Descending FlightAware
01:55PM 35.1120 -119.4110 150° Southeast 429 494 29,600 -2,160 Descending FlightAware
01:55PM 35.0560 -119.3710 150° Southeast 427 491 28,500 -1,920 Descending FlightAware
01:56PM 34.9910 -119.3250 150° Southeast 418 481 27,400 -1,680 Descending FlightAware
01:56PM 34.9350 -119.2860 150° Southeast 410 472 26,500 -1,740 Descending FlightAware
01:57PM 34.8810 -119.2480 150° Southeast 402 463 25,500 -1,800 Descending FlightAware
01:58PM 34.8200 -119.2050 150° Southeast 396 456 24,400 -1,800 Descending FlightAware
01:58PM 34.7680 -119.1690 150° Southeast 390 449 23,400 -1,860 Descending FlightAware
01:59PM 34.7210 -119.1350 149° Southeast 384 442 22,400 -1,980 Descending FlightAware
01:59PM 34.6540 -119.0880 150° Southeast 382 440 21,000 -1,800 Descending FlightAware
02:00PM 34.6050 -119.0550 151° Southeast 372 428 20,200 -1,680 Descending FlightAware
02:00PM 34.5490 -119.0150 150° Southeast 366 421 19,100 -1,740 Descending FlightAware
02:01PM 34.4990 -118.9800 150° Southeast 361 415 18,200 -1,620 Descending FlightAware
02:02PM 34.4520 -118.9480 151° Southeast 357 411 17,300 -1,680 Descending FlightAware
02:02PM 34.4030 -118.9140 150° Southeast 354 407 16,300 -1,680 Descending FlightAware
02:03PM 34.3530 -118.8820 152° Southeast 344 396 15,400 -1,620 Descending FlightAware
02:03PM 34.3000 -118.8610 162° South 336 387 14,500 -1,680 Descending FlightAware
02:04PM 34.2500 -118.8420 163° South 336 387 13,500 -1,680 Descending FlightAware
02:05PM 34.1950 -118.8220 163° South 336 387 12,500 -1,500 Descending FlightAware
02:05PM 34.1400 -118.8020 163° South 329 379 11,700 -1,080 Descending FlightAware
02:06PM 34.0930 -118.7840 162° South 312 359 11,300 -840 Descending FlightAware
02:06PM 34.0700 -118.7730 158° South 309 356 11,000 -900 Descending FlightAware
02:06PM 34.0590 -118.7630 143° Southeast 309 356 10,900 -600 Descending FlightAware
02:06PM 34.0490 -118.7510 135° Southeast 309 356 10,800 -900 Descending FlightAware
02:07PM 34.0370 -118.7230 117° Southeast 310 357 10,500 -900 Descending FlightAware
02:07PM 34.0320 -118.6940 102° East 309 356 10,300 -780 Descending FlightAware
02:07PM 34.0280 -118.6490 96° East 296 341 10,000 -780 Descending FlightAware
02:08PM 34.0250 -118.6140 96° East 286 329 9,700 -840 Descending FlightAware
02:08PM 34.0220 -118.5790 96° East 281 323 9,400 -1,020 Descending FlightAware
02:08PM 34.0190 -118.5500 97° East 281 323 9,000 -1,080 Descending FlightAware
02:09PM 34.0160 -118.5160 96° East 281 323 8,700 -1,080 Descending FlightAware
02:09PM 34.0130 -118.4850 97° East 280 322 8,300 -1,080 Descending FlightAware
02:10PM 34.0140 -118.4290 89° East 280 322 7,700 -1,140 Descending FlightAware
02:10PM 34.0180 -118.3980 81° East 277 319 7,300 -1,320 Descending FlightAware
02:10PM 34.0210 -118.3660 84° East 269 310 6,800 -1,860 Descending FlightAware
02:11PM 34.0250 -118.3370 81° East 267 307 6,000 -2,400 Descending FlightAware
02:11PM 34.0280 -118.3070 83° East 267 307 5,200 -1,980 Descending FlightAware
02:11PM 34.0300 -118.2890 82° East 268 308 4,600 -1,920 Descending FlightAware
02:12PM 34.0340 -118.2420 84° East 242 278 3,800 -2,100 Descending FlightAware
02:12PM 34.0370 -118.2130 83° East 233 268 3,100 -1,500 Descending FlightAware
02:12PM 34.0400 -118.1880 82° East 217 250 2,800 -720 Descending FlightAware
02:13PM 34.0420 -118.1700 82° East 206 237 2,700 -360 Descending FlightAware
02:13PM 34.0440 -118.1490 83° East 196 226 2,600 -180 Descending FlightAware
02:13PM 34.0450 -118.1320 86° East 190 219 2,600  Level FlightAware
02:14PM 34.0380 -118.1130 114° Southeast 187 215 2,600  Level FlightAware
02:14PM 34.0340 -118.1100 148° Southeast 188 216 2,600  Level FlightAware
02:14PM 34.0290 -118.1080 162° South 188 216 2,600  Level FlightAware
02:14PM 34.0100 -118.1050 173° South 188 216 2,600  Level FlightAware
02:15PM 33.9920 -118.1150 205° Southwest 186 214 2,600  Level FlightAware
02:15PM 33.9810 -118.1310 230° Southwest 186 214 2,600  Level FlightAware
02:15PM 33.9790 -118.1390 253° West 187 215 2,600  Level FlightAware
02:15PM 33.9770 -118.1580 263° West 186 214 2,600  Level FlightAware
02:16PM 33.9750 -118.1790 263° West 187 215 2,600  Level FlightAware
02:16PM 33.9720 -118.2010 261° West 187 215 2,600  Level FlightAware
02:16PM 33.9700 -118.2230 264° West 189 217 2,600  Level FlightAware
02:17PM 33.9680 -118.2450 264° West 190 219 2,600 -180 Level FlightAware
02:17PM 33.9660 -118.2610 261° West 192 221 2,500 -900 Descending FlightAware
02:18PM 33.9640 -118.2840 264° West 186 214 2,000 -1,020 Descending FlightAware
02:18PM 33.9610 -118.3110 262° West 164 189 1,600 -840 Descending FlightAware
02:18PM 33.9590 -118.3330 264° West 144 166 1,300 -780 Descending FlightAware
02:19PM 33.9560 -118.3610 263° West 138 159 800 -720 Descending FlightAware
02:19PM 33.9540 -118.3790 262° West 139 160 600 -780 Descending FlightAware
02:20PM 33.9530 -118.3930 265° West 139 160 300 -480 Descending FlightAware
02:20PM 33.9500 -118.4220 263° West 135 155 100 -300 Descending FlightAware